sensor_id;sensor_type;location;lat;lon;timestamp;temperature;humidity
12408;DHT22;6268;48.188;17.134;2023-01-09T00:00:47;3.30;99.90
12408;DHT22;6268;48.188;17.134;2023-01-09T00:03:18;3.40;99.90
12408;DHT22;6268;48.188;17.134;2023-01-09T00:05:49;3.40;99.90
12408;DHT22;6268;48.188;17.134;2023-01-09T00:08:21;3.40;99.90
12408;DHT22;6268;48.188;17.134;2023-01-09T00:10:50;3.40;99.90
12408;DHT22;6268;48.188;17.134;2023-01-09T00:13:20;3.40;99.90
12408;DHT22;6268;48.188;17.134;2023-01-09T00:15:49;3.50;99.90
12408;DHT22;6268;48.188;17.134;2023-01-09T00:18:19;3.30;99.90
12408;DHT22;6268;48.188;17.134;2023-01-09T00:20:50;3.30;99.90
12408;DHT22;6268;48.188;17.134;2023-01-09T00:23:19;3.30;99.90
12408;DHT22;6268;48.188;17.134;2023-01-09T00:25:48;3.40;99.90
12408;DHT22;6268;48.188;17.134;2023-01-09T00:28:18;3.30;99.90
12408;DHT22;6268;48.188;17.134;2023-01-09T00:30:55;3.40;99.90
12408;DHT22;6268;48.188;17.134;2023-01-09T00:33:27;3.40;99.90
12408;DHT22;6268;48.188;17.134;2023-01-09T00:35:59;3.40;99.90
12408;DHT22;6268;48.188;17.134;2023-01-09T00:38:28;3.40;99.90
12408;DHT22;6268;48.188;17.134;2023-01-09T00:40:59;3.50;99.90
12408;DHT22;6268;48.188;17.134;2023-01-09T00:43:37;3.50;99.90
12408;DHT22;6268;48.188;17.134;2023-01-09T00:46:14;3.50;99.90
12408;DHT22;6268;48.188;17.134;2023-01-09T00:48:45;3.60;99.90
12408;DHT22;6268;48.188;17.134;2023-01-09T00:51:19;3.50;99.90
12408;DHT22;6268;48.188;17.134;2023-01-09T00:53:49;3.50;99.90
12408;DHT22;6268;48.188;17.134;2023-01-09T00:56:20;3.50;99.90
12408;DHT22;6268;48.188;17.134;2023-01-09T00:58:51;3.60;99.90
12408;DHT22;6268;48.188;17.134;2023-01-09T01:01:20;3.60;99.90
12408;DHT22;6268;48.188;17.134;2023-01-09T01:03:53;3.70;99.90
12408;DHT22;6268;48.188;17.134;2023-01-09T01:06:24;3.70;99.90
12408;DHT22;6268;48.188;17.134;2023-01-09T01:09:13;3.70;99.90
12408;DHT22;6268;48.188;17.134;2023-01-09T01:11:47;3.60;99.90
12408;DHT22;6268;48.188;17.134;2023-01-09T01:14:20;3.50;99.90
12408;DHT22;6268;48.188;17.134;2023-01-09T01:16:50;3.50;99.90
12408;DHT22;6268;48.188;17.134;2023-01-09T01:19:22;3.60;99.90
12408;DHT22;6268;48.188;17.134;2023-01-09T01:21:53;3.50;99.90
12408;DHT22;6268;48.188;17.134;2023-01-09T01:24:22;3.50;99.90
12408;DHT22;6268;48.188;17.134;2023-01-09T01:26:52;3.60;99.90
12408;DHT22;6268;48.188;17.134;2023-01-09T01:29:21;3.70;99.90
12408;DHT22;6268;48.188;17.134;2023-01-09T01:31:50;3.80;99.90
12408;DHT22;6268;48.188;17.134;2023-01-09T01:34:23;3.80;99.90
12408;DHT22;6268;48.188;17.134;2023-01-09T01:36:53;3.80;99.90
12408;DHT22;6268;48.188;17.134;2023-01-09T01:39:23;3.80;99.90
12408;DHT22;6268;48.188;17.134;2023-01-09T01:41:52;3.90;99.90
12408;DHT22;6268;48.188;17.134;2023-01-09T01:45:00;4.00;99.90
12408;DHT22;6268;48.188;17.134;2023-01-09T01:47:52;3.90;99.90
12408;DHT22;6268;48.188;17.134;2023-01-09T01:50:28;4.00;99.90
12408;DHT22;6268;48.188;17.134;2023-01-09T01:53:07;4.10;99.90
12408;DHT22;6268;48.188;17.134;2023-01-09T01:55:42;4.10;99.90
12408;DHT22;6268;48.188;17.134;2023-01-09T01:58:16;4.10;99.90
12408;DHT22;6268;48.188;17.134;2023-01-09T02:00:47;4.20;99.90
12408;DHT22;6268;48.188;17.134;2023-01-09T02:03:17;4.20;99.90
12408;DHT22;6268;48.188;17.134;2023-01-09T02:05:49;4.30;99.90
12408;DHT22;6268;48.188;17.134;2023-01-09T02:08:20;4.30;99.90
12408;DHT22;6268;48.188;17.134;2023-01-09T02:10:50;4.30;99.90
12408;DHT22;6268;48.188;17.134;2023-01-09T02:13:21;4.40;99.90
12408;DHT22;6268;48.188;17.134;2023-01-09T02:16:02;4.50;99.90
12408;DHT22;6268;48.188;17.134;2023-01-09T02:18:49;4.50;99.90
12408;DHT22;6268;48.188;17.134;2023-01-09T02:21:36;4.50;99.90
12408;DHT22;6268;48.188;17.134;2023-01-09T02:24:27;4.40;99.90
12408;DHT22;6268;48.188;17.134;2023-01-09T02:27:47;4.40;99.90
12408;DHT22;6268;48.188;17.134;2023-01-09T02:30:44;4.50;99.90
12408;DHT22;6268;48.188;17.134;2023-01-09T02:33:26;4.50;99.90
12408;DHT22;6268;48.188;17.134;2023-01-09T02:36:14;4.50;99.90
12408;DHT22;6268;48.188;17.134;2023-01-09T02:38:57;4.50;99.90
12408;DHT22;6268;48.188;17.134;2023-01-09T02:41:46;4.60;99.90
12408;DHT22;6268;48.188;17.134;2023-01-09T02:44:22;4.60;99.90
12408;DHT22;6268;48.188;17.134;2023-01-09T02:47:05;4.70;99.90
12408;DHT22;6268;48.188;17.134;2023-01-09T02:49:37;4.70;99.90
12408;DHT22;6268;48.188;17.134;2023-01-09T02:52:21;4.70;99.90
12408;DHT22;6268;48.188;17.134;2023-01-09T02:55:07;4.80;99.90
12408;DHT22;6268;48.188;17.134;2023-01-09T02:57:55;4.80;99.90
12408;DHT22;6268;48.188;17.134;2023-01-09T03:00:35;4.80;99.90
12408;DHT22;6268;48.188;17.134;2023-01-09T03:03:20;4.90;99.90
12408;DHT22;6268;48.188;17.134;2023-01-09T03:05:57;4.90;99.90
12408;DHT22;6268;48.188;17.134;2023-01-09T03:08:37;5.00;99.90
12408;DHT22;6268;48.188;17.134;2023-01-09T03:11:09;5.00;99.90
12408;DHT22;6268;48.188;17.134;2023-01-09T03:13:42;4.90;99.90
12408;DHT22;6268;48.188;17.134;2023-01-09T03:16:20;5.00;99.90
12408;DHT22;6268;48.188;17.134;2023-01-09T03:18:55;4.90;99.90
12408;DHT22;6268;48.188;17.134;2023-01-09T03:21:27;4.90;99.90
12408;DHT22;6268;48.188;17.134;2023-01-09T03:23:59;4.90;99.90
12408;DHT22;6268;48.188;17.134;2023-01-09T03:26:29;5.00;99.90
12408;DHT22;6268;48.188;17.134;2023-01-09T03:28:58;5.00;99.90
12408;DHT22;6268;48.188;17.134;2023-01-09T03:31:27;5.00;99.90
12408;DHT22;6268;48.188;17.134;2023-01-09T03:33:58;5.10;99.90
12408;DHT22;6268;48.188;17.134;2023-01-09T03:36:27;5.10;99.90
12408;DHT22;6268;48.188;17.134;2023-01-09T03:38:56;5.10;99.90
12408;DHT22;6268;48.188;17.134;2023-01-09T03:41:25;5.10;99.90
12408;DHT22;6268;48.188;17.134;2023-01-09T03:43:54;5.10;99.90
12408;DHT22;6268;48.188;17.134;2023-01-09T03:46:23;5.10;99.90
12408;DHT22;6268;48.188;17.134;2023-01-09T03:48:52;5.20;99.90
12408;DHT22;6268;48.188;17.134;2023-01-09T03:51:22;5.20;99.90
12408;DHT22;6268;48.188;17.134;2023-01-09T03:53:51;5.20;99.90
12408;DHT22;6268;48.188;17.134;2023-01-09T03:56:21;5.30;99.90
12408;DHT22;6268;48.188;17.134;2023-01-09T03:58:51;5.30;99.90
12408;DHT22;6268;48.188;17.134;2023-01-09T04:01:20;5.30;99.90
12408;DHT22;6268;48.188;17.134;2023-01-09T04:03:49;5.30;99.90
12408;DHT22;6268;48.188;17.134;2023-01-09T04:06:19;5.30;99.90
12408;DHT22;6268;48.188;17.134;2023-01-09T04:08:49;5.40;99.90
12408;DHT22;6268;48.188;17.134;2023-01-09T04:11:18;5.40;99.90
12408;DHT22;6268;48.188;17.134;2023-01-09T04:13:48;5.40;99.90
12408;DHT22;6268;48.188;17.134;2023-01-09T04:16:17;5.50;99.90
12408;DHT22;6268;48.188;17.134;2023-01-09T04:18:46;5.50;99.90
12408;DHT22;6268;48.188;17.134;2023-01-09T04:21:16;5.50;99.90
12408;DHT22;6268;48.188;17.134;2023-01-09T04:23:45;5.50;99.90
12408;DHT22;6268;48.188;17.134;2023-01-09T04:26:15;5.50;99.90
12408;DHT22;6268;48.188;17.134;2023-01-09T04:28:44;5.60;99.90
12408;DHT22;6268;48.188;17.134;2023-01-09T04:31:13;5.60;99.90
12408;DHT22;6268;48.188;17.134;2023-01-09T04:33:42;5.60;99.90
12408;DHT22;6268;48.188;17.134;2023-01-09T04:36:12;5.60;99.90
12408;DHT22;6268;48.188;17.134;2023-01-09T04:38:41;5.60;99.90
12408;DHT22;6268;48.188;17.134;2023-01-09T04:41:09;5.60;99.90
12408;DHT22;6268;48.188;17.134;2023-01-09T04:44:00;5.70;99.90
12408;DHT22;6268;48.188;17.134;2023-01-09T04:46:29;5.70;99.90
12408;DHT22;6268;48.188;17.134;2023-01-09T04:48:58;5.70;99.90
12408;DHT22;6268;48.188;17.134;2023-01-09T04:51:27;5.70;99.90
12408;DHT22;6268;48.188;17.134;2023-01-09T04:53:56;5.70;99.90
12408;DHT22;6268;48.188;17.134;2023-01-09T04:56:25;5.80;99.90
12408;DHT22;6268;48.188;17.134;2023-01-09T04:58:54;5.80;99.90
12408;DHT22;6268;48.188;17.134;2023-01-09T05:01:25;5.80;99.90
12408;DHT22;6268;48.188;17.134;2023-01-09T05:03:54;5.80;99.90
12408;DHT22;6268;48.188;17.134;2023-01-09T05:06:23;5.80;99.90
12408;DHT22;6268;48.188;17.134;2023-01-09T05:08:52;5.80;99.90
12408;DHT22;6268;48.188;17.134;2023-01-09T05:11:22;5.80;99.90
12408;DHT22;6268;48.188;17.134;2023-01-09T05:13:53;5.80;99.90
12408;DHT22;6268;48.188;17.134;2023-01-09T05:16:22;5.80;99.90
12408;DHT22;6268;48.188;17.134;2023-01-09T05:18:52;5.80;99.90
12408;DHT22;6268;48.188;17.134;2023-01-09T05:21:23;5.80;99.90
12408;DHT22;6268;48.188;17.134;2023-01-09T05:23:52;5.90;99.90
12408;DHT22;6268;48.188;17.134;2023-01-09T05:26:22;5.90;99.90
12408;DHT22;6268;48.188;17.134;2023-01-09T05:28:51;5.90;99.90
12408;DHT22;6268;48.188;17.134;2023-01-09T05:31:23;5.90;99.90
12408;DHT22;6268;48.188;17.134;2023-01-09T05:33:55;5.90;99.90
12408;DHT22;6268;48.188;17.134;2023-01-09T05:36:25;6.00;99.90
12408;DHT22;6268;48.188;17.134;2023-01-09T05:38:54;6.00;99.90
12408;DHT22;6268;48.188;17.134;2023-01-09T05:41:24;6.00;99.90
12408;DHT22;6268;48.188;17.134;2023-01-09T05:43:53;6.00;99.90
12408;DHT22;6268;48.188;17.134;2023-01-09T05:46:22;6.00;99.90
12408;DHT22;6268;48.188;17.134;2023-01-09T05:48:51;6.10;99.90
12408;DHT22;6268;48.188;17.134;2023-01-09T05:51:22;6.10;99.90
12408;DHT22;6268;48.188;17.134;2023-01-09T05:53:51;6.10;99.90
12408;DHT22;6268;48.188;17.134;2023-01-09T05:56:20;6.10;99.90
12408;DHT22;6268;48.188;17.134;2023-01-09T05:58:49;6.10;99.90
12408;DHT22;6268;48.188;17.134;2023-01-09T06:01:18;6.10;99.90
12408;DHT22;6268;48.188;17.134;2023-01-09T06:03:49;6.20;99.90
12408;DHT22;6268;48.188;17.134;2023-01-09T06:06:18;6.20;99.90
12408;DHT22;6268;48.188;17.134;2023-01-09T06:08:50;6.30;99.90
12408;DHT22;6268;48.188;17.134;2023-01-09T06:11:19;6.30;99.90
12408;DHT22;6268;48.188;17.134;2023-01-09T06:13:48;6.40;99.90
12408;DHT22;6268;48.188;17.134;2023-01-09T06:16:17;6.40;99.90
12408;DHT22;6268;48.188;17.134;2023-01-09T06:18:46;6.40;99.90
12408;DHT22;6268;48.188;17.134;2023-01-09T06:21:15;6.50;99.90
12408;DHT22;6268;48.188;17.134;2023-01-09T06:23:44;6.50;99.90
12408;DHT22;6268;48.188;17.134;2023-01-09T06:26:14;6.70;99.90
12408;DHT22;6268;48.188;17.134;2023-01-09T06:28:43;6.70;99.90
12408;DHT22;6268;48.188;17.134;2023-01-09T06:31:12;6.70;99.90
12408;DHT22;6268;48.188;17.134;2023-01-09T06:33:41;6.70;99.90
12408;DHT22;6268;48.188;17.134;2023-01-09T06:36:10;6.80;99.90
12408;DHT22;6268;48.188;17.134;2023-01-09T06:38:39;6.80;99.90
12408;DHT22;6268;48.188;17.134;2023-01-09T06:41:08;6.90;99.90
12408;DHT22;6268;48.188;17.134;2023-01-09T06:43:38;6.90;99.90
12408;DHT22;6268;48.188;17.134;2023-01-09T06:46:07;6.90;99.90
12408;DHT22;6268;48.188;17.134;2023-01-09T06:48:37;7.00;99.90
12408;DHT22;6268;48.188;17.134;2023-01-09T06:51:06;7.10;99.90
12408;DHT22;6268;48.188;17.134;2023-01-09T06:53:35;7.20;99.90
12408;DHT22;6268;48.188;17.134;2023-01-09T06:56:05;7.20;99.90
12408;DHT22;6268;48.188;17.134;2023-01-09T06:58:34;7.20;99.90
12408;DHT22;6268;48.188;17.134;2023-01-09T07:01:05;7.30;99.90
12408;DHT22;6268;48.188;17.134;2023-01-09T07:03:34;7.40;99.90
12408;DHT22;6268;48.188;17.134;2023-01-09T07:06:04;7.40;99.90
12408;DHT22;6268;48.188;17.134;2023-01-09T07:08:34;7.50;99.90
12408;DHT22;6268;48.188;17.134;2023-01-09T07:11:02;7.60;99.90
12408;DHT22;6268;48.188;17.134;2023-01-09T07:13:32;7.60;99.90
12408;DHT22;6268;48.188;17.134;2023-01-09T07:16:00;7.70;99.90
12408;DHT22;6268;48.188;17.134;2023-01-09T07:18:33;7.70;99.90
12408;DHT22;6268;48.188;17.134;2023-01-09T07:21:05;7.80;99.90
12408;DHT22;6268;48.188;17.134;2023-01-09T07:23:34;7.80;99.90
12408;DHT22;6268;48.188;17.134;2023-01-09T07:26:03;7.80;99.90
12408;DHT22;6268;48.188;17.134;2023-01-09T07:28:32;7.90;99.90
12408;DHT22;6268;48.188;17.134;2023-01-09T07:31:01;7.90;99.90
12408;DHT22;6268;48.188;17.134;2023-01-09T07:33:35;7.90;99.90
12408;DHT22;6268;48.188;17.134;2023-01-09T07:36:04;8.00;99.90
12408;DHT22;6268;48.188;17.134;2023-01-09T07:38:33;8.00;99.90
12408;DHT22;6268;48.188;17.134;2023-01-09T07:41:03;8.00;99.90
12408;DHT22;6268;48.188;17.134;2023-01-09T07:43:33;8.10;99.90
12408;DHT22;6268;48.188;17.134;2023-01-09T07:46:02;8.00;99.90
12408;DHT22;6268;48.188;17.134;2023-01-09T07:48:31;8.10;99.90
12408;DHT22;6268;48.188;17.134;2023-01-09T07:51:02;8.10;99.90
12408;DHT22;6268;48.188;17.134;2023-01-09T07:53:32;8.20;99.90
12408;DHT22;6268;48.188;17.134;2023-01-09T07:56:01;8.30;99.90
12408;DHT22;6268;48.188;17.134;2023-01-09T07:58:30;8.30;99.90
12408;DHT22;6268;48.188;17.134;2023-01-09T08:00:59;8.40;99.90
12408;DHT22;6268;48.188;17.134;2023-01-09T08:03:28;8.40;99.90
12408;DHT22;6268;48.188;17.134;2023-01-09T08:05:57;8.40;99.90
12408;DHT22;6268;48.188;17.134;2023-01-09T08:08:27;8.50;99.90
12408;DHT22;6268;48.188;17.134;2023-01-09T08:10:56;8.50;99.90
12408;DHT22;6268;48.188;17.134;2023-01-09T08:13:25;8.40;99.90
12408;DHT22;6268;48.188;17.134;2023-01-09T08:15:54;8.40;99.90
12408;DHT22;6268;48.188;17.134;2023-01-09T08:18:23;8.40;99.90
12408;DHT22;6268;48.188;17.134;2023-01-09T08:20:52;8.40;99.90
12408;DHT22;6268;48.188;17.134;2023-01-09T08:23:21;8.40;99.90
12408;DHT22;6268;48.188;17.134;2023-01-09T08:25:52;8.50;99.90
12408;DHT22;6268;48.188;17.134;2023-01-09T08:28:21;8.50;99.90
12408;DHT22;6268;48.188;17.134;2023-01-09T08:30:50;8.50;99.90
12408;DHT22;6268;48.188;17.134;2023-01-09T08:33:19;8.50;99.90
12408;DHT22;6268;48.188;17.134;2023-01-09T08:35:48;8.50;99.90
12408;DHT22;6268;48.188;17.134;2023-01-09T08:38:17;8.50;99.90
12408;DHT22;6268;48.188;17.134;2023-01-09T08:40:48;8.60;99.90
12408;DHT22;6268;48.188;17.134;2023-01-09T08:43:18;8.60;99.90
12408;DHT22;6268;48.188;17.134;2023-01-09T08:46:05;8.60;99.90
12408;DHT22;6268;48.188;17.134;2023-01-09T08:49:02;8.60;99.90
12408;DHT22;6268;48.188;17.134;2023-01-09T08:51:31;8.60;99.90
12408;DHT22;6268;48.188;17.134;2023-01-09T08:53:59;8.60;99.90
12408;DHT22;6268;48.188;17.134;2023-01-09T08:56:28;8.60;99.90
12408;DHT22;6268;48.188;17.134;2023-01-09T08:58:59;8.60;99.90
12408;DHT22;6268;48.188;17.134;2023-01-09T09:01:28;8.60;99.90
12408;DHT22;6268;48.188;17.134;2023-01-09T09:03:57;8.70;99.90
12408;DHT22;6268;48.188;17.134;2023-01-09T09:06:26;8.70;99.90
12408;DHT22;6268;48.188;17.134;2023-01-09T09:08:55;8.70;99.90
12408;DHT22;6268;48.188;17.134;2023-01-09T09:11:24;8.80;99.90
12408;DHT22;6268;48.188;17.134;2023-01-09T09:13:52;8.80;99.90
12408;DHT22;6268;48.188;17.134;2023-01-09T09:16:23;8.80;99.90
12408;DHT22;6268;48.188;17.134;2023-01-09T09:18:53;8.90;99.90
12408;DHT22;6268;48.188;17.134;2023-01-09T09:21:21;8.90;99.90
12408;DHT22;6268;48.188;17.134;2023-01-09T09:23:50;8.90;99.90
12408;DHT22;6268;48.188;17.134;2023-01-09T09:26:19;8.90;99.90
12408;DHT22;6268;48.188;17.134;2023-01-09T09:28:48;8.90;99.90
12408;DHT22;6268;48.188;17.134;2023-01-09T09:31:17;8.90;99.90
12408;DHT22;6268;48.188;17.134;2023-01-09T09:33:47;8.90;99.90
12408;DHT22;6268;48.188;17.134;2023-01-09T09:36:16;8.90;99.90
12408;DHT22;6268;48.188;17.134;2023-01-09T09:38:45;9.00;99.90
12408;DHT22;6268;48.188;17.134;2023-01-09T09:41:23;9.00;99.90
12408;DHT22;6268;48.188;17.134;2023-01-09T09:44:38;9.00;99.90
12408;DHT22;6268;48.188;17.134;2023-01-09T09:47:35;9.00;99.90
12408;DHT22;6268;48.188;17.134;2023-01-09T09:50:46;9.10;99.90
12408;DHT22;6268;48.188;17.134;2023-01-09T09:53:31;9.10;99.90
12408;DHT22;6268;48.188;17.134;2023-01-09T09:56:04;9.10;99.90
12408;DHT22;6268;48.188;17.134;2023-01-09T09:58:40;9.10;99.90
12408;DHT22;6268;48.188;17.134;2023-01-09T10:01:15;9.10;99.90
12408;DHT22;6268;48.188;17.134;2023-01-09T10:03:51;9.20;99.90
12408;DHT22;6268;48.188;17.134;2023-01-09T10:06:27;9.10;99.90
12408;DHT22;6268;48.188;17.134;2023-01-09T10:09:03;9.20;99.90
12408;DHT22;6268;48.188;17.134;2023-01-09T10:11:41;9.20;99.90
12408;DHT22;6268;48.188;17.134;2023-01-09T10:14:14;9.20;99.90
12408;DHT22;6268;48.188;17.134;2023-01-09T10:17:11;9.20;99.90
12408;DHT22;6268;48.188;17.134;2023-01-09T10:20:06;9.20;99.90
12408;DHT22;6268;48.188;17.134;2023-01-09T10:22:57;9.20;99.90
12408;DHT22;6268;48.188;17.134;2023-01-09T10:25:40;9.20;99.90
12408;DHT22;6268;48.188;17.134;2023-01-09T10:28:31;9.20;99.90
12408;DHT22;6268;48.188;17.134;2023-01-09T10:31:23;9.20;99.90
12408;DHT22;6268;48.188;17.134;2023-01-09T10:34:09;9.30;99.90
12408;DHT22;6268;48.188;17.134;2023-01-09T10:37:00;9.30;99.90
12408;DHT22;6268;48.188;17.134;2023-01-09T10:39:41;9.30;99.90
12408;DHT22;6268;48.188;17.134;2023-01-09T10:42:19;9.30;99.90
12408;DHT22;6268;48.188;17.134;2023-01-09T10:45:01;9.30;99.90
12408;DHT22;6268;48.188;17.134;2023-01-09T10:47:36;9.30;99.90
12408;DHT22;6268;48.188;17.134;2023-01-09T10:50:18;9.30;99.90
12408;DHT22;6268;48.188;17.134;2023-01-09T10:52:50;9.20;99.90
12408;DHT22;6268;48.188;17.134;2023-01-09T10:55:29;9.20;99.90
12408;DHT22;6268;48.188;17.134;2023-01-09T10:58:10;9.10;99.90
12408;DHT22;6268;48.188;17.134;2023-01-09T11:00:41;9.00;99.90
12408;DHT22;6268;48.188;17.134;2023-01-09T11:03:11;8.90;99.90
12408;DHT22;6268;48.188;17.134;2023-01-09T11:05:41;8.90;99.90
12408;DHT22;6268;48.188;17.134;2023-01-09T11:08:23;8.90;99.90
12408;DHT22;6268;48.188;17.134;2023-01-09T11:10:59;8.80;99.90
12408;DHT22;6268;48.188;17.134;2023-01-09T11:13:31;8.70;99.90
12408;DHT22;6268;48.188;17.134;2023-01-09T11:16:04;8.70;99.90
12408;DHT22;6268;48.188;17.134;2023-01-09T11:18:38;8.70;99.90
12408;DHT22;6268;48.188;17.134;2023-01-09T11:21:17;8.60;99.90
12408;DHT22;6268;48.188;17.134;2023-01-09T11:23:56;8.60;99.90
12408;DHT22;6268;48.188;17.134;2023-01-09T11:27:30;8.60;99.90
12408;DHT22;6268;48.188;17.134;2023-01-09T11:33:13;8.60;99.90
12408;DHT22;6268;48.188;17.134;2023-01-09T11:35:57;8.60;99.90
12408;DHT22;6268;48.188;17.134;2023-01-09T11:38:29;8.60;99.90
12408;DHT22;6268;48.188;17.134;2023-01-09T11:41:00;8.60;99.90
12408;DHT22;6268;48.188;17.134;2023-01-09T11:43:35;8.60;99.90
12408;DHT22;6268;48.188;17.134;2023-01-09T11:46:07;8.60;99.90
12408;DHT22;6268;48.188;17.134;2023-01-09T11:48:41;8.60;99.90
12408;DHT22;6268;48.188;17.134;2023-01-09T11:51:24;8.50;99.90
12408;DHT22;6268;48.188;17.134;2023-01-09T11:54:04;8.50;99.90
12408;DHT22;6268;48.188;17.134;2023-01-09T11:56:44;8.50;99.90
12408;DHT22;6268;48.188;17.134;2023-01-09T11:59:17;8.50;99.90
12408;DHT22;6268;48.188;17.134;2023-01-09T12:05:29;8.50;99.90
12408;DHT22;6268;48.188;17.134;2023-01-09T12:08:27;8.40;99.90
12408;DHT22;6268;48.188;17.134;2023-01-09T12:11:21;8.50;99.90
12408;DHT22;6268;48.188;17.134;2023-01-09T12:17:16;8.60;99.90
12408;DHT22;6268;48.188;17.134;2023-01-09T12:20:20;8.60;99.90
12408;DHT22;6268;48.188;17.134;2023-01-09T12:23:02;8.50;99.90
12408;DHT22;6268;48.188;17.134;2023-01-09T12:25:50;8.60;99.90
12408;DHT22;6268;48.188;17.134;2023-01-09T12:28:37;8.60;99.90
12408;DHT22;6268;48.188;17.134;2023-01-09T12:31:29;8.50;99.90
12408;DHT22;6268;48.188;17.134;2023-01-09T12:34:21;8.50;99.90
12408;DHT22;6268;48.188;17.134;2023-01-09T12:37:14;8.60;99.90
12408;DHT22;6268;48.188;17.134;2023-01-09T12:40:21;8.60;99.90
12408;DHT22;6268;48.188;17.134;2023-01-09T12:43:03;8.60;99.90
12408;DHT22;6268;48.188;17.134;2023-01-09T12:45:46;8.50;99.90
12408;DHT22;6268;48.188;17.134;2023-01-09T12:48:42;8.50;99.90
12408;DHT22;6268;48.188;17.134;2023-01-09T12:51:26;8.50;99.90
12408;DHT22;6268;48.188;17.134;2023-01-09T12:54:02;8.50;99.90
12408;DHT22;6268;48.188;17.134;2023-01-09T12:56:38;8.50;99.90
12408;DHT22;6268;48.188;17.134;2023-01-09T12:59:21;8.50;99.90
12408;DHT22;6268;48.188;17.134;2023-01-09T13:02:08;8.50;99.90
12408;DHT22;6268;48.188;17.134;2023-01-09T13:04:51;8.50;99.90
12408;DHT22;6268;48.188;17.134;2023-01-09T13:07:27;8.50;99.90
12408;DHT22;6268;48.188;17.134;2023-01-09T13:10:05;8.50;99.90
12408;DHT22;6268;48.188;17.134;2023-01-09T13:12:45;8.50;99.90
12408;DHT22;6268;48.188;17.134;2023-01-09T13:15:26;8.50;99.90
12408;DHT22;6268;48.188;17.134;2023-01-09T13:18:03;8.60;99.90
12408;DHT22;6268;48.188;17.134;2023-01-09T13:20:43;8.50;99.90
12408;DHT22;6268;48.188;17.134;2023-01-09T13:23:17;8.50;99.90
12408;DHT22;6268;48.188;17.134;2023-01-09T13:25:55;8.50;99.90
12408;DHT22;6268;48.188;17.134;2023-01-09T13:28:28;8.50;99.90
12408;DHT22;6268;48.188;17.134;2023-01-09T13:31:22;8.50;99.90
12408;DHT22;6268;48.188;17.134;2023-01-09T13:34:18;8.50;99.90
12408;DHT22;6268;48.188;17.134;2023-01-09T13:36:52;8.50;99.90
12408;DHT22;6268;48.188;17.134;2023-01-09T13:39:25;8.40;99.90
12408;DHT22;6268;48.188;17.134;2023-01-09T13:41:57;8.40;99.90
12408;DHT22;6268;48.188;17.134;2023-01-09T13:44:46;8.40;99.90
12408;DHT22;6268;48.188;17.134;2023-01-09T13:47:19;8.30;99.90
12408;DHT22;6268;48.188;17.134;2023-01-09T13:50:00;8.30;99.90
12408;DHT22;6268;48.188;17.134;2023-01-09T13:52:45;8.30;99.90
12408;DHT22;6268;48.188;17.134;2023-01-09T13:55:29;8.30;99.90
12408;DHT22;6268;48.188;17.134;2023-01-09T13:58:20;8.30;99.90
12408;DHT22;6268;48.188;17.134;2023-01-09T14:00:55;8.30;99.90
12408;DHT22;6268;48.188;17.134;2023-01-09T14:03:29;8.30;99.90
12408;DHT22;6268;48.188;17.134;2023-01-09T14:06:17;8.20;99.90
12408;DHT22;6268;48.188;17.134;2023-01-09T14:09:09;8.20;99.90
12408;DHT22;6268;48.188;17.134;2023-01-09T14:11:45;8.20;99.90
12408;DHT22;6268;48.188;17.134;2023-01-09T14:14:27;8.10;99.90
12408;DHT22;6268;48.188;17.134;2023-01-09T14:17:00;8.10;99.90
12408;DHT22;6268;48.188;17.134;2023-01-09T14:19:35;8.10;99.90
12408;DHT22;6268;48.188;17.134;2023-01-09T14:22:06;8.10;99.90
12408;DHT22;6268;48.188;17.134;2023-01-09T14:24:54;8.10;99.90
12408;DHT22;6268;48.188;17.134;2023-01-09T14:28:17;8.10;99.90
12408;DHT22;6268;48.188;17.134;2023-01-09T14:31:08;8.00;99.90
12408;DHT22;6268;48.188;17.134;2023-01-09T14:33:38;8.00;99.90
12408;DHT22;6268;48.188;17.134;2023-01-09T14:36:15;8.00;99.90
12408;DHT22;6268;48.188;17.134;2023-01-09T14:38:49;8.00;99.90
12408;DHT22;6268;48.188;17.134;2023-01-09T14:41:26;8.00;99.90
12408;DHT22;6268;48.188;17.134;2023-01-09T14:44:24;8.00;99.90
12408;DHT22;6268;48.188;17.134;2023-01-09T14:46:59;8.00;99.90
12408;DHT22;6268;48.188;17.134;2023-01-09T14:49:36;8.00;99.90
12408;DHT22;6268;48.188;17.134;2023-01-09T14:52:14;8.00;99.90
12408;DHT22;6268;48.188;17.134;2023-01-09T14:54:50;8.00;99.90
12408;DHT22;6268;48.188;17.134;2023-01-09T14:57:28;7.90;99.90
12408;DHT22;6268;48.188;17.134;2023-01-09T14:59:59;8.00;99.90
12408;DHT22;6268;48.188;17.134;2023-01-09T15:02:31;7.90;99.90
12408;DHT22;6268;48.188;17.134;2023-01-09T15:05:06;7.90;99.90
12408;DHT22;6268;48.188;17.134;2023-01-09T15:07:41;7.90;99.90
12408;DHT22;6268;48.188;17.134;2023-01-09T15:10:20;7.80;99.90
12408;DHT22;6268;48.188;17.134;2023-01-09T15:12:53;7.90;99.90
12408;DHT22;6268;48.188;17.134;2023-01-09T15:15:24;7.80;99.90
12408;DHT22;6268;48.188;17.134;2023-01-09T15:17:57;7.80;99.90
12408;DHT22;6268;48.188;17.134;2023-01-09T15:20:29;7.80;99.90
12408;DHT22;6268;48.188;17.134;2023-01-09T15:23:01;7.70;99.90
12408;DHT22;6268;48.188;17.134;2023-01-09T15:25:33;7.70;99.90
12408;DHT22;6268;48.188;17.134;2023-01-09T15:28:27;7.70;99.90
12408;DHT22;6268;48.188;17.134;2023-01-09T15:31:11;7.70;99.90
12408;DHT22;6268;48.188;17.134;2023-01-09T15:33:45;7.70;99.90
12408;DHT22;6268;48.188;17.134;2023-01-09T15:36:18;7.70;99.90
12408;DHT22;6268;48.188;17.134;2023-01-09T15:38:50;7.70;99.90
12408;DHT22;6268;48.188;17.134;2023-01-09T15:41:24;7.80;99.90
12408;DHT22;6268;48.188;17.134;2023-01-09T15:44:17;7.70;99.90
12408;DHT22;6268;48.188;17.134;2023-01-09T15:46:50;7.70;99.90
12408;DHT22;6268;48.188;17.134;2023-01-09T15:49:19;7.70;99.90
12408;DHT22;6268;48.188;17.134;2023-01-09T15:51:49;7.70;99.90
12408;DHT22;6268;48.188;17.134;2023-01-09T15:54:25;7.80;99.90
12408;DHT22;6268;48.188;17.134;2023-01-09T15:57:25;7.80;99.90
12408;DHT22;6268;48.188;17.134;2023-01-09T16:00:31;7.70;99.90
12408;DHT22;6268;48.188;17.134;2023-01-09T16:03:16;7.70;99.90
12408;DHT22;6268;48.188;17.134;2023-01-09T16:05:54;7.70;99.90
12408;DHT22;6268;48.188;17.134;2023-01-09T16:08:34;7.70;99.90
12408;DHT22;6268;48.188;17.134;2023-01-09T16:11:06;7.70;99.90
12408;DHT22;6268;48.188;17.134;2023-01-09T16:13:40;7.70;99.90
12408;DHT22;6268;48.188;17.134;2023-01-09T16:16:24;7.70;99.90
12408;DHT22;6268;48.188;17.134;2023-01-09T16:18:59;7.70;99.90
12408;DHT22;6268;48.188;17.134;2023-01-09T16:21:35;7.60;99.90
12408;DHT22;6268;48.188;17.134;2023-01-09T16:24:21;7.60;99.90
12408;DHT22;6268;48.188;17.134;2023-01-09T16:27:11;7.60;99.90
12408;DHT22;6268;48.188;17.134;2023-01-09T16:29:48;7.60;99.90
12408;DHT22;6268;48.188;17.134;2023-01-09T16:32:27;7.60;99.90
12408;DHT22;6268;48.188;17.134;2023-01-09T16:35:00;7.60;99.90
12408;DHT22;6268;48.188;17.134;2023-01-09T16:37:33;7.60;99.90
12408;DHT22;6268;48.188;17.134;2023-01-09T16:40:22;7.60;99.90
12408;DHT22;6268;48.188;17.134;2023-01-09T16:42:54;7.60;99.90
12408;DHT22;6268;48.188;17.134;2023-01-09T16:45:36;7.60;99.90
12408;DHT22;6268;48.188;17.134;2023-01-09T16:48:13;7.50;99.90